createdAt,value
2022-09-20T00:01:33.281Z,70.22
2022-09-20T00:04:05.502Z,70.44
2022-09-20T00:06:34.488Z,70.30
2022-09-20T00:09:03.024Z,70.18
2022-09-20T00:11:33.219Z,70.40
2022-09-20T00:14:02.932Z,70.09
2022-09-20T00:16:34.342Z,69.97
2022-09-20T00:19:06.628Z,70.17
2022-09-20T00:21:37.947Z,69.98
2022-09-20T00:24:06.038Z,70.17
2022-09-20T00:26:33.701Z,70.30
2022-09-20T00:29:01.639Z,70.08
2022-09-20T00:31:28.862Z,70.38
2022-09-20T00:34:16.921Z,70.22
2022-09-20T00:36:44.952Z,70.15
2022-09-20T00:39:14.704Z,70.21
2022-09-20T00:41:42.091Z,70.14
2022-09-20T00:44:56.850Z,70.37
2022-09-20T00:47:33.825Z,70.64
2022-09-20T00:50:24.160Z,70.18
2022-09-20T00:53:05.156Z,70.06
2022-09-20T00:55:35.736Z,70.30
2022-09-20T00:58:03.180Z,70.48
2022-09-20T01:00:30.351Z,70.52
2022-09-20T01:03:06.707Z,70.13
2022-09-20T01:05:34.689Z,69.95
2022-09-20T01:08:02.765Z,69.83
2022-09-20T01:10:32.080Z,69.73
2022-09-20T01:12:59.018Z,70.01
2022-09-20T01:15:28.860Z,69.97
2022-09-20T01:17:59.573Z,70.13
2022-09-20T01:20:32.001Z,70.12
2022-09-20T01:24:02.544Z,70.06
2022-09-20T01:26:57.592Z,70.14
2022-09-20T01:30:03.116Z,70.11
2022-09-20T01:32:44.807Z,70.07
2022-09-20T01:35:13.325Z,69.91
2022-09-20T01:38:14.350Z,70.24
2022-09-20T01:41:05.969Z,69.95
2022-09-20T01:43:51.067Z,70.21
2022-09-20T01:46:35.247Z,70.18
2022-09-20T01:49:21.319Z,70.50
2022-09-20T01:52:03.658Z,70.00
2022-09-20T01:55:06.445Z,70.01
2022-09-20T01:58:00.827Z,70.11
2022-09-20T02:00:39.197Z,70.20
2022-09-20T02:03:16.757Z,69.98
2022-09-20T02:06:23.528Z,69.91
2022-09-20T02:09:21.609Z,69.77
2022-09-20T02:12:22.105Z,69.92
2022-09-20T02:15:55.285Z,69.91
2022-09-20T02:18:44.194Z,70.16
2022-09-20T02:21:28.905Z,70.11
2022-09-20T02:24:14.657Z,70.09
2022-09-20T02:27:03.071Z,69.98
2022-09-20T02:30:00.835Z,70.07
2022-09-20T02:32:55.170Z,70.02
2022-09-20T02:35:44.066Z,70.12
2022-09-20T02:38:32.288Z,70.08
2022-09-20T02:41:40.932Z,70.13
2022-09-20T02:44:30.190Z,70.24
2022-09-20T02:47:36.566Z,70.38
2022-09-20T02:50:38.791Z,70.11
2022-09-20T02:53:33.064Z,70.15
2022-09-20T02:56:29.989Z,70.27
2022-09-20T02:59:08.819Z,70.32
2022-09-20T03:02:18.606Z,70.29
2022-09-20T03:05:26.420Z,70.29
2022-09-20T03:08:35.708Z,70.32
2022-09-20T03:11:48.554Z,70.44
2022-09-20T03:14:23.109Z,70.32
2022-09-20T03:17:23.912Z,70.31
2022-09-20T03:20:15.824Z,70.55
2022-09-20T03:23:36.553Z,70.16
2022-09-20T03:26:32.104Z,70.43
2022-09-20T03:29:17.682Z,70.27
2022-09-20T03:32:19.572Z,70.44
2022-09-20T03:35:43.119Z,70.41
2022-09-20T03:38:50.538Z,70.41
2022-09-20T03:41:50.151Z,70.29
2022-09-20T03:44:59.223Z,70.52
2022-09-20T03:48:06.539Z,70.46
2022-09-20T03:50:47.829Z,70.40
2022-09-20T03:53:29.771Z,70.55
2022-09-20T03:56:11.311Z,70.64
2022-09-20T03:58:56.060Z,70.52
2022-09-20T04:02:10.066Z,70.47
2022-09-20T04:05:17.117Z,70.55
2022-09-20T04:08:19.329Z,70.85
2022-09-20T04:11:15.779Z,70.71
2022-09-20T04:14:14.970Z,70.66
2022-09-20T04:17:03.328Z,70.64
2022-09-20T04:19:49.098Z,70.42
2022-09-20T04:22:18.723Z,70.74
2022-09-20T04:25:15.737Z,70.68
2022-09-20T04:27:59.398Z,70.76
2022-09-20T04:30:32.769Z,70.75
2022-09-20T04:33:38.600Z,70.76
2022-09-20T04:37:09.320Z,70.76
2022-09-20T04:40:26.556Z,70.75
2022-09-20T04:43:42.804Z,70.93
2022-09-20T04:46:56.215Z,70.86
2022-09-20T04:49:43.132Z,70.59
2022-09-20T04:53:14.975Z,71.10
2022-09-20T04:56:12.043Z,70.86
2022-09-20T04:58:48.120Z,70.91
2022-09-20T05:01:44.463Z,70.80
2022-09-20T05:04:25.882Z,70.98
2022-09-20T05:07:47.238Z,71.14
2022-09-20T05:10:46.017Z,70.99
2022-09-20T05:13:47.921Z,71.09
2022-09-20T05:16:40.714Z,70.85
2022-09-20T05:19:25.253Z,70.95
2022-09-20T05:22:23.215Z,70.71
2022-09-20T05:25:27.880Z,70.85
2022-09-20T05:28:23.833Z,70.81
2022-09-20T05:31:34.543Z,70.89
2022-09-20T05:34:23.608Z,70.88
2022-09-20T05:36:56.461Z,70.84
2022-09-20T05:39:37.088Z,70.92
2022-09-20T05:42:19.072Z,70.91
2022-09-20T05:45:13.984Z,70.89
2022-09-20T05:47:52.580Z,70.68
2022-09-20T05:50:56.637Z,70.60
2022-09-20T05:53:40.089Z,70.97
2022-09-20T05:56:13.129Z,70.63
2022-09-20T05:59:32.221Z,71.01
2022-09-20T06:02:34.186Z,70.83
2022-09-20T06:05:49.000Z,71.04
2022-09-20T06:08:33.935Z,70.83
2022-09-20T06:11:51.106Z,71.09
2022-09-20T06:15:00.879Z,70.93
2022-09-20T06:18:18.445Z,71.10
2022-09-20T06:21:19.843Z,71.34
2022-09-20T06:23:47.445Z,71.38
2022-09-20T06:28:46.351Z,71.18
2022-09-20T06:31:13.609Z,71.06
2022-09-20T06:33:50.398Z,71.16
2022-09-20T06:36:50.717Z,71.06
2022-09-20T06:39:58.917Z,70.76
2022-09-20T06:42:27.512Z,70.84
2022-09-20T06:44:55.061Z,71.01
2022-09-20T06:47:23.289Z,70.22
2022-09-20T06:49:50.501Z,70.36
2022-09-20T06:52:20.385Z,70.72
2022-09-20T06:54:53.914Z,70.38
2022-09-20T06:57:38.715Z,70.61
2022-09-20T07:00:10.943Z,70.35
2022-09-20T07:02:38.665Z,70.38
2022-09-20T07:05:07.860Z,70.27
2022-09-20T07:07:35.199Z,70.14
2022-09-20T07:10:02.636Z,70.36
2022-09-20T07:12:33.610Z,70.83
2022-09-20T07:15:00.892Z,70.52
2022-09-20T07:17:28.057Z,70.21
2022-09-20T07:19:57.158Z,70.04
2022-09-20T07:22:24.352Z,69.65
2022-09-20T07:24:51.323Z,69.97
2022-09-20T07:27:19.009Z,70.02
2022-09-20T07:29:46.442Z,69.74
2022-09-20T07:32:15.714Z,69.64
2022-09-20T07:34:43.334Z,69.83
2022-09-20T07:37:11.580Z,69.60
2022-09-20T07:39:38.669Z,69.20
2022-09-20T07:42:09.984Z,68.82
2022-09-20T07:44:42.812Z,69.31
2022-09-20T07:47:11.272Z,69.83
2022-09-20T07:49:38.182Z,70.15
2022-09-20T07:52:06.469Z,70.75
2022-09-20T07:54:33.633Z,70.08
2022-09-20T07:57:00.877Z,68.57
2022-09-20T07:59:27.841Z,68.60
2022-09-20T08:01:55.065Z,68.58
2022-09-20T08:04:22.194Z,67.92
2022-09-20T08:06:49.571Z,68.16
2022-09-20T08:09:16.812Z,68.00
2022-09-20T08:11:44.449Z,67.50
2022-09-20T08:14:16.934Z,68.12
2022-09-20T08:16:47.904Z,68.55
2022-09-20T08:19:23.461Z,69.07
2022-09-20T08:21:53.987Z,69.04
2022-09-20T08:24:21.390Z,67.43
2022-09-20T08:26:48.890Z,67.53
2022-09-20T08:29:16.487Z,67.53
2022-09-20T08:31:44.139Z,66.01
2022-09-20T08:34:14.961Z,66.50
2022-09-20T08:36:46.723Z,66.32
2022-09-20T08:42:23.365Z,67.31
2022-09-20T08:45:00.505Z,67.37
2022-09-20T08:47:36.034Z,67.61
2022-09-20T08:50:09.959Z,67.93
2022-09-20T08:52:41.310Z,68.13
2022-09-20T08:55:22.248Z,67.79
2022-09-20T08:57:56.849Z,67.10
2022-09-20T09:00:35.140Z,67.27
2022-09-20T09:03:11.193Z,66.48
2022-09-20T09:05:53.190Z,65.97
2022-09-20T09:08:28.068Z,66.25
2022-09-20T09:11:00.087Z,67.00
2022-09-20T09:13:37.795Z,66.70
2022-09-20T09:16:15.230Z,66.78
2022-09-20T09:18:45.997Z,65.91
2022-09-20T09:21:26.612Z,66.36
2022-09-20T09:24:03.405Z,66.58
2022-09-20T09:26:40.975Z,66.90
2022-09-20T09:29:25.532Z,66.67
2022-09-20T09:31:57.156Z,66.74
2022-09-20T09:34:32.092Z,67.31
2022-09-20T09:36:59.494Z,67.45
2022-09-20T09:39:29.545Z,67.52
2022-09-20T09:42:01.115Z,67.80
2022-09-20T09:44:35.525Z,67.45
2022-09-20T09:47:02.561Z,65.63
2022-09-20T09:49:34.204Z,65.95
2022-09-20T09:52:15.169Z,65.21
2022-09-20T09:54:52.288Z,64.42
2022-09-20T09:57:57.149Z,64.64
2022-09-20T10:00:27.318Z,65.19
2022-09-20T10:03:27.037Z,66.19
2022-09-20T10:06:22.552Z,65.88
2022-09-20T10:09:04.664Z,65.81
2022-09-20T10:11:43.555Z,64.87
2022-09-20T10:14:39.865Z,63.93
2022-09-20T10:17:47.313Z,63.73
2022-09-20T10:20:53.085Z,62.85
2022-09-20T10:24:03.652Z,61.92
2022-09-20T10:26:55.655Z,61.66
2022-09-20T10:29:40.584Z,62.71
2022-09-20T10:32:27.440Z,63.24
2022-09-20T10:35:14.440Z,63.32
2022-09-20T10:38:11.597Z,63.61
2022-09-20T10:41:51.267Z,63.37
2022-09-20T10:44:37.433Z,64.08
2022-09-20T10:47:20.445Z,64.71
2022-09-20T10:50:05.138Z,65.37
2022-09-20T10:53:35.668Z,65.47
2022-09-20T10:56:28.749Z,65.73
2022-09-20T10:59:44.397Z,66.52
2022-09-20T11:02:42.627Z,68.00
2022-09-20T11:05:20.960Z,68.13
2022-09-20T11:08:19.289Z,67.46
2022-09-20T11:10:53.851Z,67.56
2022-09-20T11:13:41.168Z,66.84
2022-09-20T11:16:47.844Z,67.65
2022-09-20T11:19:26.979Z,67.64
2022-09-20T11:22:12.309Z,66.61
2022-09-20T11:24:51.772Z,66.45
2022-09-20T11:27:29.552Z,65.93
2022-09-20T11:30:02.070Z,65.32
2022-09-20T11:32:53.268Z,65.78
2022-09-20T11:35:37.063Z,65.38
2022-09-20T11:38:36.158Z,65.23
2022-09-20T11:41:26.637Z,65.57
2022-09-20T11:43:57.671Z,65.25
2022-09-20T11:46:31.561Z,64.20
2022-09-20T11:49:16.225Z,64.06
2022-09-20T11:52:24.503Z,63.48
2022-09-20T11:55:24.005Z,62.50
2022-09-20T11:58:09.462Z,62.50
2022-09-20T12:00:44.651Z,62.49
2022-09-20T12:03:38.840Z,63.20
2022-09-20T12:06:30.267Z,63.53
2022-09-20T12:09:00.438Z,64.33
2022-09-20T12:11:38.717Z,64.83
2022-09-20T12:14:18.709Z,63.00
2022-09-20T12:16:49.064Z,63.43
2022-09-20T12:19:32.261Z,64.89
2022-09-20T12:21:59.575Z,65.17
2022-09-20T12:24:29.256Z,65.48
2022-09-20T12:26:59.936Z,65.54
2022-09-20T12:29:26.935Z,64.79
2022-09-20T12:32:34.809Z,64.89
2022-09-20T12:35:02.348Z,65.86
2022-09-20T12:37:29.987Z,65.57
2022-09-20T12:39:57.290Z,64.81
2022-09-20T12:42:32.207Z,61.22
2022-09-20T12:45:16.517Z,60.80
2022-09-20T12:47:53.877Z,59.86
2022-09-20T12:50:41.042Z,58.67
2022-09-20T12:53:16.775Z,59.20
2022-09-20T12:56:05.673Z,59.37
2022-09-20T12:58:52.123Z,60.75
2022-09-20T13:01:19.169Z,60.61
2022-09-20T13:03:48.644Z,58.19
2022-09-20T13:06:17.709Z,57.06
2022-09-20T13:09:01.977Z,56.92
2022-09-20T13:11:40.791Z,57.18
2022-09-20T13:14:19.143Z,57.28
2022-09-20T13:16:55.054Z,57.59
2022-09-20T13:19:31.687Z,55.13
2022-09-20T13:22:26.001Z,56.49
2022-09-20T13:25:07.072Z,58.45
2022-09-20T13:27:39.649Z,56.64
2022-09-20T13:30:22.346Z,53.77
2022-09-20T13:32:51.500Z,50.14
2022-09-20T13:35:22.286Z,49.59
2022-09-20T13:38:07.572Z,49.13
2022-09-20T13:40:40.142Z,50.92
2022-09-20T13:43:33.885Z,52.19
2022-09-20T13:46:13.970Z,51.67
2022-09-20T13:48:41.261Z,51.15
2022-09-20T13:51:26.448Z,51.06
2022-09-20T13:53:54.550Z,50.71
2022-09-20T13:56:32.472Z,50.61
2022-09-20T13:59:05.456Z,51.92
2022-09-20T14:04:16.160Z,51.91
2022-09-20T14:06:43.711Z,52.15
2022-09-20T14:09:35.785Z,52.96
2022-09-20T14:12:05.309Z,53.91
2022-09-20T14:14:35.068Z,54.05
2022-09-20T14:17:08.883Z,54.16
2022-09-20T14:19:44.109Z,54.38
2022-09-20T14:22:26.435Z,54.09
2022-09-20T14:25:02.197Z,53.67
2022-09-20T14:27:31.486Z,53.75
2022-09-20T14:30:00.191Z,55.18
2022-09-20T14:32:44.975Z,56.55
2022-09-20T14:35:21.492Z,55.91
2022-09-20T14:38:06.966Z,55.89
2022-09-20T14:40:48.666Z,54.74
2022-09-20T14:43:35.205Z,54.61
2022-09-20T14:46:07.135Z,55.08
2022-09-20T14:48:41.263Z,54.45
2022-09-20T14:51:22.721Z,52.75
2022-09-20T14:53:53.892Z,50.25
2022-09-20T14:56:35.937Z,48.29
2022-09-20T14:59:13.988Z,45.92
2022-09-20T15:01:46.621Z,44.25
2022-09-20T15:04:23.095Z,44.95
2022-09-20T15:06:51.524Z,45.61
2022-09-20T15:09:20.902Z,46.54
2022-09-20T15:12:17.806Z,45.85
2022-09-20T15:14:45.893Z,46.54
2022-09-20T15:17:20.818Z,46.61
2022-09-20T15:19:50.190Z,47.39
2022-09-20T15:22:17.654Z,47.91
2022-09-20T15:24:44.933Z,48.17
2022-09-20T15:27:13.506Z,47.58
2022-09-20T15:29:40.968Z,46.96
2022-09-20T15:32:10.725Z,45.74
2022-09-20T15:34:38.200Z,44.09
2022-09-20T15:37:05.231Z,43.66
2022-09-20T15:39:32.177Z,42.10
2022-09-20T15:41:59.254Z,43.00
2022-09-20T15:44:26.251Z,43.23
2022-09-20T15:46:53.669Z,43.82
2022-09-20T15:49:21.810Z,43.96
2022-09-20T15:51:49.059Z,44.35
2022-09-20T15:54:16.065Z,45.25
2022-09-20T15:56:43.420Z,45.85
2022-09-20T15:59:11.732Z,45.88
2022-09-20T16:01:44.445Z,46.20
2022-09-20T16:04:19.638Z,46.71
2022-09-20T16:06:49.597Z,47.66
2022-09-20T16:09:18.102Z,47.53
2022-09-20T16:11:48.305Z,47.91
2022-09-20T16:14:15.674Z,47.95
2022-09-20T16:16:42.665Z,48.07
2022-09-20T16:19:17.504Z,49.03
2022-09-20T16:21:52.496Z,48.95
2022-09-20T16:24:35.689Z,49.27
2022-09-20T16:27:06.494Z,49.43
2022-09-20T16:29:34.353Z,50.21
2022-09-20T16:32:03.606Z,50.08
2022-09-20T16:34:36.100Z,50.62
2022-09-20T16:37:11.832Z,50.80
2022-09-20T16:39:40.317Z,51.05
2022-09-20T16:42:09.071Z,51.31
2022-09-20T16:44:38.385Z,51.68
2022-09-20T16:47:08.934Z,52.19
2022-09-20T16:49:37.146Z,52.68
2022-09-20T16:52:09.428Z,52.62
2022-09-20T16:54:37.202Z,54.01
2022-09-20T16:57:05.151Z,53.70
2022-09-20T16:59:32.777Z,54.14
2022-09-20T17:02:00.311Z,54.17
2022-09-20T17:04:27.711Z,53.96
2022-09-20T17:06:57.799Z,54.37
2022-09-20T17:09:24.907Z,54.17
2022-09-20T17:11:56.713Z,54.52
2022-09-20T17:14:25.851Z,54.67
2022-09-20T17:16:53.237Z,54.81
2022-09-20T17:19:21.589Z,54.79
2022-09-20T17:21:51.516Z,54.57
2022-09-20T17:24:21.241Z,54.49
2022-09-20T17:26:50.375Z,55.78
2022-09-20T17:29:19.890Z,56.24
2022-09-20T17:31:55.658Z,55.87
2022-09-20T17:34:26.556Z,57.17
2022-09-20T17:36:55.611Z,56.83
2022-09-20T17:39:23.090Z,57.10
2022-09-20T17:41:50.956Z,57.20
2022-09-20T17:44:18.700Z,57.14
2022-09-20T17:46:49.924Z,57.21
2022-09-20T17:49:20.712Z,56.96
2022-09-20T17:51:53.583Z,57.18
2022-09-20T17:54:21.970Z,57.25
2022-09-20T17:56:51.521Z,57.91
2022-09-20T17:59:20.145Z,58.39
2022-09-20T18:01:50.749Z,58.97
2022-09-20T18:04:21.013Z,58.70
2022-09-20T18:06:51.893Z,59.11
2022-09-20T18:09:22.608Z,58.78
2022-09-20T18:11:54.065Z,59.64
2022-09-20T18:14:25.035Z,59.77
2022-09-20T18:17:00.664Z,59.71
2022-09-20T18:19:32.775Z,59.43
2022-09-20T18:22:04.253Z,59.96
2022-09-20T18:24:32.241Z,60.25
2022-09-20T18:27:00.921Z,60.94
2022-09-20T18:29:29.165Z,60.45
2022-09-20T18:31:56.812Z,60.05
2022-09-20T18:34:31.910Z,59.82
2022-09-20T18:37:03.651Z,61.46
2022-09-20T18:39:33.490Z,60.28
2022-09-20T18:42:02.505Z,60.85
2022-09-20T18:44:34.233Z,61.10
2022-09-20T18:47:05.696Z,60.98
2022-09-20T18:49:33.342Z,61.42
2022-09-20T18:52:00.366Z,61.59
2022-09-20T18:54:30.469Z,61.19
2022-09-20T18:56:58.306Z,61.07
2022-09-20T18:59:27.440Z,61.74
2022-09-20T19:02:16.750Z,60.97
2022-09-20T19:05:14.387Z,60.94
2022-09-20T19:08:26.110Z,60.96
2022-09-20T19:10:59.490Z,61.28
2022-09-20T19:13:41.454Z,62.21
2022-09-20T19:16:37.087Z,61.53
2022-09-20T19:19:26.501Z,61.41
2022-09-20T19:22:51.421Z,61.31
2022-09-20T19:25:26.116Z,60.99
2022-09-20T19:27:54.046Z,61.24
2022-09-20T19:30:22.049Z,61.52
2022-09-20T19:32:49.634Z,61.51
2022-09-20T19:35:28.427Z,63.07
2022-09-20T19:38:24.755Z,63.46
2022-09-20T19:41:39.586Z,64.18
2022-09-20T19:44:25.827Z,63.80
2022-09-20T19:47:17.222Z,64.01
2022-09-20T19:50:02.771Z,63.42
2022-09-20T19:52:31.002Z,62.96
2022-09-20T19:54:58.241Z,63.03
2022-09-20T19:57:47.156Z,62.62
2022-09-20T20:00:20.783Z,62.88
2022-09-20T20:02:48.811Z,62.86
2022-09-20T20:05:20.042Z,62.55
2022-09-20T20:07:59.652Z,62.30
2022-09-20T20:10:38.937Z,62.80
2022-09-20T20:13:33.416Z,63.47
2022-09-20T20:16:13.732Z,63.62
2022-09-20T20:19:03.111Z,63.58
2022-09-20T20:22:03.267Z,63.27
2022-09-20T20:24:44.689Z,64.13
2022-09-20T20:27:12.218Z,65.34
2022-09-20T20:29:39.161Z,65.04
2022-09-20T20:32:06.294Z,64.87
2022-09-20T20:34:36.909Z,65.04
2022-09-20T20:37:08.242Z,65.42
2022-09-20T20:39:35.306Z,66.35
2022-09-20T20:42:03.954Z,65.57
2022-09-20T20:44:33.747Z,66.45
2022-09-20T20:47:05.762Z,66.70
2022-09-20T20:49:33.346Z,66.39
2022-09-20T20:52:04.647Z,67.12
2022-09-20T20:54:32.823Z,67.28
2022-09-20T20:56:59.836Z,66.63
2022-09-20T20:59:27.907Z,67.33
2022-09-20T21:01:54.934Z,67.08
2022-09-20T21:04:24.131Z,67.08
2022-09-20T21:06:51.090Z,66.54
2022-09-20T21:09:18.351Z,67.14
2022-09-20T21:11:46.640Z,66.02
2022-09-20T21:14:13.742Z,66.36
2022-09-20T21:16:43.552Z,66.01
2022-09-20T21:19:15.651Z,66.24
2022-09-20T21:21:47.198Z,66.01
2022-09-20T21:24:17.457Z,66.51
2022-09-20T21:26:46.709Z,65.79
2022-09-20T21:29:15.879Z,66.18
2022-09-20T21:31:46.709Z,66.00
2022-09-20T21:34:15.712Z,66.19
2022-09-20T21:36:44.765Z,65.47
2022-09-20T21:39:12.741Z,65.35
2022-09-20T21:41:40.992Z,64.88
2022-09-20T21:44:12.158Z,65.21
2022-09-20T21:46:42.008Z,64.55
2022-09-20T21:49:12.239Z,64.63
2022-09-20T21:51:42.610Z,64.67
2022-09-20T21:54:10.059Z,64.84
2022-09-20T21:56:38.906Z,64.92
2022-09-20T21:59:07.664Z,64.78
2022-09-20T22:01:38.374Z,64.74
2022-09-20T22:04:11.557Z,64.98
2022-09-20T22:06:43.782Z,65.11
2022-09-20T22:09:13.678Z,64.79
2022-09-20T22:11:47.155Z,65.01
2022-09-20T22:14:17.492Z,65.19
2022-09-20T22:16:46.669Z,65.38
2022-09-20T22:19:17.072Z,65.30
2022-09-20T22:21:47.863Z,65.37
2022-09-20T22:24:16.539Z,64.99
2022-09-20T22:26:46.014Z,65.46
2022-09-20T22:29:13.253Z,65.20
2022-09-20T22:31:46.516Z,65.25
2022-09-20T22:34:19.854Z,65.92
2022-09-20T22:36:47.100Z,66.79
2022-09-20T22:39:15.615Z,66.89
2022-09-20T22:41:43.432Z,67.25
2022-09-20T22:44:11.179Z,67.07
2022-09-20T22:46:38.943Z,67.61
2022-09-20T22:49:08.210Z,67.89
2022-09-20T22:51:36.393Z,67.71
2022-09-20T22:54:09.684Z,67.64
2022-09-20T22:56:37.784Z,68.32
2022-09-20T22:59:15.566Z,68.41
2022-09-20T23:01:46.098Z,68.70
2022-09-20T23:04:16.822Z,68.49
2022-09-20T23:06:57.517Z,68.55
2022-09-20T23:09:30.257Z,68.37
2022-09-20T23:11:57.397Z,68.20
2022-09-20T23:14:24.346Z,68.56
2022-09-20T23:16:51.547Z,68.38
2022-09-20T23:19:18.856Z,68.75
2022-09-20T23:21:46.276Z,68.14
2022-09-20T23:24:16.112Z,68.45
2022-09-20T23:26:45.018Z,68.40
2022-09-20T23:29:16.716Z,68.41
2022-09-20T23:31:46.741Z,68.48
2022-09-20T23:34:15.780Z,68.30
2022-09-20T23:36:43.407Z,68.36
2022-09-20T23:39:11.859Z,68.37
2022-09-20T23:41:39.892Z,68.62
2022-09-20T23:44:10.134Z,68.56
2022-09-20T23:46:38.353Z,69.07
2022-09-20T23:49:06.604Z,69.09
2022-09-20T23:51:35.310Z,69.02
2022-09-20T23:54:02.690Z,69.35
2022-09-20T23:56:30.045Z,68.77
2022-09-20T23:58:57.311Z,69.07
